Time;durP1;ratioP1;P1;durP2;ratioP2;P2;SDS_P1;SDS_P2;PMS_P1;PMS_P2;Temp;Humidity;BMP_temperature;BMP_pressure;BME280_temperature;BME280_humidity;BME280_pressure;Samples;Min_cycle;Max_cycle;Signal;HPM_P1;HPM_P2
2022/02/19 00:01:12;;;;;;;;;;;;;;;21.43;31.33;95140.22;10521425;28;2381;-50
2022/02/19 00:06:13;;;;;;;;;;;;;;;21.43;31.33;95135.69;10521025;28;1910;-46
2022/02/19 00:11:13;;;;;;;;;;;;;;;21.45;31.43;95159.16;10522742;28;1867;-48
2022/02/19 00:16:13;;;;;;;;;;;;;;;21.44;31.37;95162.84;10539729;28;1952;-46
2022/02/19 00:21:14;;;;;;;;;;;;;;;21.46;31.33;95172.03;10521828;28;1792;-45
2022/02/19 00:26:14;;;;;;;;;;;;;;;21.37;31.21;95186.97;10526717;28;1910;-48
2022/02/19 00:31:15;;;;;;;;;;;;;;;21.35;30.78;95185.72;10517900;28;1973;-49
2022/02/19 00:36:15;;;;;;;;;;;;;;;21.27;30.60;95196.94;10523608;28;1883;-47
2022/02/19 00:41:16;;;;;;;;;;;;;;;21.33;31.11;95203.69;10518383;28;1756;-49
2022/02/19 00:46:17;;;;;;;;;;;;;;;21.30;30.93;95183.16;10506395;28;1979;-45
2022/02/19 00:51:18;;;;;;;;;;;;;;;21.35;31.13;95191.75;10514218;28;1867;-44
2022/02/19 00:56:18;;;;;;;;;;;;;;;21.29;30.45;95192.91;10519831;28;1868;-49
2022/02/19 01:01:19;;;;;;;;;;;;;;;21.31;30.59;95201.31;10536058;28;1836;-45
2022/02/19 01:06:19;;;;;;;;;;;;;;;21.23;30.54;95203.81;10519463;28;2011;-46
2022/02/19 01:11:20;;;;;;;;;;;;;;;21.20;29.86;95214.97;10516533;28;1852;-47
2022/02/19 01:16:20;;;;;;;;;;;;;;;21.23;29.88;95220.44;10521556;28;1836;-46
2022/02/19 01:21:20;;;;;;;;;;;;;;;21.22;29.71;95234.69;10519678;28;1791;-46
2022/02/19 01:26:21;;;;;;;;;;;;;;;21.19;29.50;95223.94;10520983;28;1910;-49
2022/02/19 01:31:21;;;;;;;;;;;;;;;21.15;29.03;95223.75;10522430;28;1843;-47
2022/02/19 01:36:21;;;;;;;;;;;;;;;21.13;29.29;95231.16;10510875;28;1784;-44
2022/02/19 01:41:22;;;;;;;;;;;;;;;21.20;29.21;95236.06;10513647;28;1882;-47
2022/02/19 01:46:22;;;;;;;;;;;;;;;21.24;29.66;95232.56;10520594;28;1927;-49
2022/02/19 01:51:23;;;;;;;;;;;;;;;21.22;29.92;95228.63;10514827;28;1915;-46
2022/02/19 01:56:23;;;;;;;;;;;;;;;21.25;29.38;95230.69;10524875;28;1888;-46
2022/02/19 02:01:23;;;;;;;;;;;;;;;21.23;29.64;95235.47;10505040;28;2178;-46
2022/02/19 02:06:24;;;;;;;;;;;;;;;21.21;29.73;95248.16;10521576;28;1967;-47
2022/02/19 02:11:24;;;;;;;;;;;;;;;21.15;28.65;95252.72;10504342;28;1813;-45
2022/02/19 02:16:38;;;;;;;;;;;;;;;21.18;28.96;95261.91;10530279;28;1870;-47
2022/02/19 02:21:38;;;;;;;;;;;;;;;21.18;29.36;95264.56;10512871;28;1817;-46
2022/02/19 02:26:39;;;;;;;;;;;;;;;21.19;28.96;95250.28;10517655;28;2130;-45
2022/02/19 02:31:39;;;;;;;;;;;;;;;21.17;28.50;95268.25;10504940;28;1984;-46
2022/02/19 02:36:39;;;;;;;;;;;;;;;21.19;28.44;95263.47;10520973;28;2016;-47
2022/02/19 02:41:40;;;;;;;;;;;;;;;21.18;28.71;95260.06;10514872;28;2070;-45
2022/02/19 02:46:41;;;;;;;;;;;;;;;21.19;28.64;95263.47;10517972;28;1996;-47
2022/02/19 02:51:41;;;;;;;;;;;;;;;21.20;28.94;95263.19;10514142;28;1992;-48
2022/02/19 02:56:41;;;;;;;;;;;;;;;21.18;28.47;95272.47;10515060;28;2120;-48
2022/02/19 03:01:42;;;;;;;;;;;;;;;21.18;29.28;95281.16;10510866;28;1859;-44
2022/02/19 03:06:42;;;;;;;;;;;;;;;21.16;28.84;95288.56;10514952;28;1965;-48
2022/02/19 03:11:42;;;;;;;;;;;;;;;21.17;29.36;95300.66;10515873;28;1781;-45
2022/02/19 03:16:43;;;;;;;;;;;;;;;21.12;29.02;95313.16;10519924;28;1815;-46
2022/02/19 03:21:43;;;;;;;;;;;;;;;21.08;28.10;95325.34;10527242;28;1952;-44
2022/02/19 03:26:43;;;;;;;;;;;;;;;21.02;27.88;95330.66;10516259;28;2017;-48
2022/02/19 03:31:45;;;;;;;;;;;;;;;21.05;28.92;95340.66;10523943;28;1882;-50
2022/02/19 03:36:45;;;;;;;;;;;;;;;21.00;28.23;95342.53;10522661;28;1860;-45
2022/02/19 03:41:46;;;;;;;;;;;;;;;20.97;28.13;95354.44;10525222;28;1712;-45
2022/02/19 03:46:46;;;;;;;;;;;;;;;21.05;29.13;95334.59;10521154;28;1977;-44
2022/02/19 03:51:48;;;;;;;;;;;;;;;20.99;27.91;95341.75;10519772;28;1823;-47
2022/02/19 03:56:48;;;;;;;;;;;;;;;21.01;27.68;95354.66;10524809;28;1749;-51
2022/02/19 04:01:50;;;;;;;;;;;;;;;21.08;29.21;95359.59;10519977;28;1866;-48
2022/02/19 04:06:51;;;;;;;;;;;;;;;21.05;28.86;95372.28;10522621;28;1946;-46
2022/02/19 04:11:51;;;;;;;;;;;;;;;21.03;28.41;95379.69;10523568;28;1867;-49
2022/02/19 04:16:51;;;;;;;;;;;;;;;21.07;28.70;95377.25;10521638;28;1780;-50
2022/02/19 04:21:52;;;;;;;;;;;;;;;21.07;28.51;95390.44;10524499;28;1550;-48
2022/02/19 04:26:52;;;;;;;;;;;;;;;21.08;28.21;95387.50;10521354;28;1980;-48
2022/02/19 04:31:55;;;;;;;;;;;;;;;21.08;28.78;95393.84;10524666;28;1823;-45
2022/02/19 04:36:55;;;;;;;;;;;;;;;21.05;28.59;95392.56;10526039;28;1983;-47
2022/02/19 04:41:56;;;;;;;;;;;;;;;21.04;28.13;95396.28;10518857;28;1830;-48
2022/02/19 04:46:56;;;;;;;;;;;;;;;21.04;28.78;95394.41;10520532;28;1976;-47
2022/02/19 04:51:57;;;;;;;;;;;;;;;21.05;28.80;95403.09;10521807;28;1934;-48
2022/02/19 04:56:58;;;;;;;;;;;;;;;20.99;28.64;95405.00;10521441;28;1824;-47
2022/02/19 05:01:58;;;;;;;;;;;;;;;20.98;28.09;95418.44;10515364;28;1823;-48
2022/02/19 05:06:58;;;;;;;;;;;;;;;20.95;28.14;95409.28;10500842;28;1963;-45
2022/02/19 05:11:59;;;;;;;;;;;;;;;20.93;27.82;95418.53;10513735;28;1748;-47
2022/02/19 05:16:59;;;;;;;;;;;;;;;20.88;27.77;95422.00;10519321;28;1727;-45
2022/02/19 05:22:00;;;;;;;;;;;;;;;20.93;27.73;95427.22;10519846;28;1858;-46
2022/02/19 05:27:01;;;;;;;;;;;;;;;20.90;27.90;95440.94;10523934;28;1965;-44
2022/02/19 05:32:01;;;;;;;;;;;;;;;20.90;27.76;95440.94;10518007;28;1779;-46
2022/02/19 05:37:01;;;;;;;;;;;;;;;20.98;28.41;95450.06;10524147;28;1803;-45
2022/02/19 05:42:02;;;;;;;;;;;;;;;20.93;27.77;95448.28;10514358;28;1840;-50
2022/02/19 05:47:03;;;;;;;;;;;;;;;20.92;28.30;95469.63;10521793;28;1981;-47
2022/02/19 05:52:03;;;;;;;;;;;;;;;20.89;28.00;95460.47;10517992;28;1896;-47
2022/02/19 05:57:04;;;;;;;;;;;;;;;20.91;27.93;95468.09;10517956;28;1855;-45
2022/02/19 06:02:04;;;;;;;;;;;;;;;20.89;28.03;95488.66;10533167;28;1810;-45
2022/02/19 06:07:04;;;;;;;;;;;;;;;20.86;27.71;95482.09;10520526;28;1966;-47
2022/02/19 06:12:05;;;;;;;;;;;;;;;20.90;28.22;95491.00;10517298;28;1838;-45
2022/02/19 06:17:05;;;;;;;;;;;;;;;20.89;27.94;95499.19;10522719;28;1831;-46
2022/02/19 06:22:05;;;;;;;;;;;;;;;20.88;27.84;95500.25;10501168;28;1773;-48
2022/02/19 06:27:06;;;;;;;;;;;;;;;20.90;28.09;95514.72;10517624;28;1977;-47
2022/02/19 06:32:06;;;;;;;;;;;;;;;20.92;28.65;95520.47;10512227;28;2069;-46
2022/02/19 06:37:07;;;;;;;;;;;;;;;20.89;28.21;95520.28;10517811;28;1848;-47
2022/02/19 06:42:07;;;;;;;;;;;;;;;20.89;28.19;95534.25;10515706;28;1977;-50
2022/02/19 06:47:07;;;;;;;;;;;;;;;20.87;27.82;95539.00;10516105;28;1909;-47
2022/02/19 06:52:07;;;;;;;;;;;;;;;20.85;27.73;95554.31;10513791;28;1914;-45
2022/02/19 06:57:13;;;;;;;;;;;;;;;20.85;27.69;95559.56;10513997;28;1923;-45
2022/02/19 07:02:14;;;;;;;;;;;;;;;20.87;28.20;95575.09;10515211;28;2097;-46
2022/02/19 07:07:14;;;;;;;;;;;;;;;20.84;27.81;95592.25;10514067;28;2176;-47
2022/02/19 07:12:15;;;;;;;;;;;;;;;20.86;27.68;95608.56;10516433;28;1772;-46
2022/02/19 07:17:16;;;;;;;;;;;;;;;20.87;27.82;95614.63;10515355;28;2050;-49
2022/02/19 07:22:16;;;;;;;;;;;;;;;20.88;28.21;95610.91;10535907;28;2004;-48
2022/02/19 07:27:17;;;;;;;;;;;;;;;20.76;27.67;95606.03;10512568;28;1910;-46
2022/02/19 07:32:17;;;;;;;;;;;;;;;20.64;27.95;95625.88;10533114;28;1799;-47
2022/02/19 07:37:18;;;;;;;;;;;;;;;20.56;27.78;95626.47;10515999;28;1844;-48
2022/02/19 07:42:18;;;;;;;;;;;;;;;20.49;27.68;95642.59;10532212;28;1799;-47
2022/02/19 07:47:26;;;;;;;;;;;;;;;20.44;27.17;95655.81;10511866;28;1911;-45
2022/02/19 08:03:12;;;;;;;;;;;;;;;20.40;28.05;95675.84;10520449;28;1981;-50
2022/02/19 08:08:13;;;;;;;;;;;;;;;20.53;28.09;95675.22;10524274;28;1767;-47
2022/02/19 08:13:14;;;;;;;;;;;;;;;20.59;28.00;95674.09;10522952;28;1818;-51
2022/02/19 08:18:15;;;;;;;;;;;;;;;20.64;27.88;95681.97;10524819;28;1700;-46
2022/02/19 08:23:16;;;;;;;;;;;;;;;20.66;28.09;95690.41;10523955;28;1963;-46
2022/02/19 08:28:17;;;;;;;;;;;;;;;20.72;27.99;95696.41;10520022;28;1761;-50
2022/02/19 08:33:18;;;;;;;;;;;;;;;20.82;28.61;95702.38;10523386;28;1836;-46
2022/02/19 08:38:19;;;;;;;;;;;;;;;20.83;28.58;95717.13;10525747;28;1737;-45
2022/02/19 08:43:19;;;;;;;;;;;;;;;20.84;28.38;95713.44;10524475;28;1922;-47
2022/02/19 08:48:20;;;;;;;;;;;;;;;20.87;27.81;95718.16;10497990;28;1843;-49
2022/02/19 08:53:23;;;;;;;;;;;;;;;20.88;28.01;95717.09;10513083;22;1919;-60
2022/02/19 08:58:24;;;;;;;;;;;;;;;20.93;28.28;95732.88;10473181;28;1845;-59
2022/02/19 09:03:25;;;;;;;;;;;;;;;21.00;29.38;95722.78;10476672;28;1905;-62
2022/02/19 09:08:25;;;;;;;;;;;;;;;21.05;28.27;95746.50;10474499;28;1769;-61
2022/02/19 09:13:26;;;;;;;;;;;;;;;20.98;28.19;95742.56;10479115;28;1742;-58
2022/02/19 09:18:27;;;;;;;;;;;;;;;21.01;27.98;95747.28;10478850;28;1781;-60
2022/02/19 09:23:28;;;;;;;;;;;;;;;21.13;28.88;95765.41;10470024;28;2751;-58
2022/02/19 09:28:28;;;;;;;;;;;;;;;21.03;27.69;95753.09;10472617;28;1792;-59
2022/02/19 09:33:29;;;;;;;;;;;;;;;21.06;28.15;95771.00;10477079;28;1856;-60
2022/02/19 09:38:33;;;;;;;;;;;;;;;21.11;28.67;95778.06;10473288;28;1753;-60
2022/02/19 09:43:34;;;;;;;;;;;;;;;21.16;28.23;95772.78;10473464;28;1930;-59
2022/02/19 09:48:35;;;;;;;;;;;;;;;21.17;28.08;95784.88;10474498;28;1850;-59
2022/02/19 09:53:35;;;;;;;;;;;;;;;21.23;29.25;95791.66;10472342;28;1809;-57
2022/02/19 09:58:37;;;;;;;;;;;;;;;21.38;29.62;95791.56;10470673;28;1911;-59
2022/02/19 10:03:38;;;;;;;;;;;;;;;21.46;29.06;95789.09;10469620;28;1910;-59
2022/02/19 10:08:38;;;;;;;;;;;;;;;21.32;27.75;95788.19;10475676;28;1907;-54
2022/02/19 10:13:40;;;;;;;;;;;;;;;21.27;28.04;95806.66;10476910;28;1867;-56
2022/02/19 10:18:44;;;;;;;;;;;;;;;21.21;27.75;95801.72;10474730;28;1849;-57
2022/02/19 10:23:48;;;;;;;;;;;;;;;21.19;27.41;95796.72;10472601;28;1991;-58
2022/02/19 10:29:02;;;;;;;;;;;;;;;21.28;29.07;95807.47;10469993;28;1922;-58
2022/02/19 10:34:16;;;;;;;;;;;;;;;21.46;28.97;95819.97;10474889;28;1847;-59
2022/02/19 10:39:24;;;;;;;;;;;;;;;21.34;28.21;95811.63;10468565;28;1922;-58
2022/02/19 10:44:25;;;;;;;;;;;;;;;21.37;28.30;95819.00;10453826;28;1910;-59
2022/02/19 10:49:27;;;;;;;;;;;;;;;21.47;29.29;95826.81;10471161;28;1745;-57
2022/02/19 10:54:27;;;;;;;;;;;;;;;21.52;29.78;95829.41;10476958;28;1923;-58
2022/02/19 10:59:31;;;;;;;;;;;;;;;21.42;28.61;95830.28;10466528;28;1859;-58
2022/02/19 11:04:32;;;;;;;;;;;;;;;21.56;31.02;95825.94;10452326;28;1913;-57
2022/02/19 11:09:32;;;;;;;;;;;;;;;21.59;31.23;95819.31;10472251;28;1863;-57
2022/02/19 11:14:33;;;;;;;;;;;;;;;21.60;31.79;95820.88;10472262;28;1787;-56
2022/02/19 11:19:34;;;;;;;;;;;;;;;21.66;31.77;95811.84;10470174;28;1807;-56
2022/02/19 11:24:34;;;;;;;;;;;;;;;21.65;31.79;95811.09;10470751;28;1918;-58
2022/02/19 11:29:36;;;;;;;;;;;;;;;21.58;31.99;95802.69;10451695;28;1777;-59
2022/02/19 11:34:36;;;;;;;;;;;;;;;21.61;31.98;95801.38;10474331;28;1812;-59
2022/02/19 11:39:56;;;;;;;;;;;;;;;21.56;31.95;95788.22;10483106;28;1856;-56
2022/02/19 11:44:56;;;;;;;;;;;;;;;21.77;31.73;95789.59;10484428;28;1963;-58
2022/02/19 11:50:29;;;;;;;;;;;;;;;21.65;32.09;95791.84;10479327;28;1819;-57
2022/02/19 11:55:30;;;;;;;;;;;;;;;21.75;31.74;95792.53;10439690;28;1821;-57
2022/02/19 12:00:46;;;;;;;;;;;;;;;21.75;31.71;95787.25;10475708;28;1791;-57
2022/02/19 12:06:05;;;;;;;;;;;;;;;21.73;31.50;95792.00;10476113;28;1975;-55
2022/02/19 12:11:06;;;;;;;;;;;;;;;21.81;31.74;95790.59;10480356;28;1815;-58
2022/02/19 12:16:26;;;;;;;;;;;;;;;21.64;31.97;95791.03;10480324;28;1836;-57
2022/02/19 12:21:33;;;;;;;;;;;;;;;21.66;31.83;95783.63;10472998;28;2086;-55
2022/02/19 12:26:53;;;;;;;;;;;;;;;21.65;31.62;95770.72;10475662;28;1910;-56
2022/02/19 12:32:01;;;;;;;;;;;;;;;21.64;31.56;95766.50;10473929;28;1813;-56
2022/02/19 12:37:02;;;;;;;;;;;;;;;21.65;31.79;95773.38;10475535;28;1807;-56
2022/02/19 12:42:03;;;;;;;;;;;;;;;21.64;31.62;95764.66;10479155;28;1823;-53
2022/02/19 12:47:03;;;;;;;;;;;;;;;21.65;31.27;95768.09;10480481;28;1905;-55
2022/02/19 12:52:04;;;;;;;;;;;;;;;21.66;31.32;95761.72;10460160;28;1784;-56
2022/02/19 12:57:05;;;;;;;;;;;;;;;21.66;31.46;95753.81;10480129;28;1893;-54
2022/02/19 13:02:06;;;;;;;;;;;;;;;21.73;31.10;95746.38;10477512;28;1709;-55
2022/02/19 13:07:10;;;;;;;;;;;;;;;21.71;31.10;95744.03;10478547;28;1938;-55
2022/02/19 13:12:10;;;;;;;;;;;;;;;21.81;30.69;95743.09;10475129;28;1818;-55
2022/02/19 13:17:13;;;;;;;;;;;;;;;21.91;30.94;95743.03;10483083;28;1721;-56
2022/02/19 13:22:20;;;;;;;;;;;;;;;21.93;30.68;95734.84;10476530;28;1870;-55
2022/02/19 13:27:21;;;;;;;;;;;;;;;21.95;30.50;95733.47;10480019;28;1961;-54
2022/02/19 13:32:30;;;;;;;;;;;;;;;22.43;29.77;95737.63;10472736;28;1843;-55
2022/02/19 13:37:31;;;;;;;;;;;;;;;22.28;29.58;95743.09;10475653;28;1741;-53
2022/02/19 13:42:37;;;;;;;;;;;;;;;22.10;30.04;95746.50;10474286;28;1778;-55
2022/02/19 13:47:39;;;;;;;;;;;;;;;21.96;30.06;95742.19;10476464;28;1910;-57
2022/02/19 13:52:40;;;;;;;;;;;;;;;21.82;30.23;95742.84;10455947;28;1848;-56
2022/02/19 13:57:49;;;;;;;;;;;;;;;21.72;30.45;95750.09;10473234;28;2051;-57
2022/02/19 14:02:59;;;;;;;;;;;;;;;21.66;30.22;95757.25;10473692;28;1860;-55
2022/02/19 14:07:59;;;;;;;;;;;;;;;22.02;29.78;95749.75;10468509;28;1816;-54
2022/02/19 14:13:09;;;;;;;;;;;;;;;22.03;29.67;95751.31;10469669;28;1825;-53
2022/02/19 14:18:09;;;;;;;;;;;;;;;21.79;29.95;95751.31;10476097;28;1795;-55
2022/02/19 14:23:10;;;;;;;;;;;;;;;21.71;30.27;95743.22;10476686;28;1922;-56
2022/02/19 14:28:14;;;;;;;;;;;;;;;21.59;30.02;95745.47;10472890;28;1741;-56
2022/02/19 14:33:14;;;;;;;;;;;;;;;21.55;29.99;95739.19;10470541;28;1769;-54
2022/02/19 14:38:24;;;;;;;;;;;;;;;21.49;30.53;95735.03;10468815;28;1813;-54
2022/02/19 14:43:24;;;;;;;;;;;;;;;21.49;30.25;95742.94;10478985;28;1919;-54
2022/02/19 14:48:25;;;;;;;;;;;;;;;21.46;29.19;95738.22;10469244;28;1956;-55
2022/02/19 14:53:26;;;;;;;;;;;;;;;21.38;29.35;95729.06;10477399;28;1898;-55
2022/02/19 14:58:26;;;;;;;;;;;;;;;21.40;30.16;95731.41;10468699;28;1756;-54
2022/02/19 15:03:28;;;;;;;;;;;;;;;21.40;30.00;95728.78;10475604;28;1922;-54
2022/02/19 15:08:28;;;;;;;;;;;;;;;21.33;29.31;95730.97;10470195;28;1871;-54
2022/02/19 15:13:29;;;;;;;;;;;;;;;21.28;29.66;95729.16;10485367;28;1887;-56
2022/02/19 15:18:29;;;;;;;;;;;;;;;21.25;28.50;95723.63;10481432;28;1811;-56
2022/02/19 15:23:29;;;;;;;;;;;;;;;21.22;28.17;95718.94;10483550;28;2303;-56
2022/02/19 15:28:31;;;;;;;;;;;;;;;21.24;28.23;95720.25;10479480;28;1888;-55
2022/02/19 15:33:31;;;;;;;;;;;;;;;21.21;28.09;95727.91;10480558;28;1819;-55
2022/02/19 15:38:32;;;;;;;;;;;;;;;21.32;29.10;95724.09;10481478;28;1800;-54
2022/02/19 15:43:33;;;;;;;;;;;;;;;21.34;29.33;95727.25;10487588;28;2070;-53
2022/02/19 15:48:37;;;;;;;;;;;;;;;21.30;28.38;95729.66;10477379;28;1918;-53
2022/02/19 15:53:37;;;;;;;;;;;;;;;21.31;28.82;95728.59;10482324;28;1851;-52
2022/02/19 15:58:39;;;;;;;;;;;;;;;21.34;28.97;95721.97;10474652;28;1806;-55
2022/02/19 16:03:39;;;;;;;;;;;;;;;21.34;29.25;95717.50;10481907;28;1911;-56
2022/02/19 16:08:39;;;;;;;;;;;;;;;21.34;29.28;95719.34;10478732;28;1916;-51
2022/02/19 16:13:41;;;;;;;;;;;;;;;21.35;29.29;95718.28;10483153;28;1733;-56
2022/02/19 16:18:41;;;;;;;;;;;;;;;21.35;29.06;95720.94;10483079;28;1880;-54
2022/02/19 16:23:41;;;;;;;;;;;;;;;21.31;28.78;95722.56;10479273;28;1922;-55
2022/02/19 16:28:43;;;;;;;;;;;;;;;21.31;29.17;95727.81;10480194;28;1761;-55
2022/02/19 16:33:44;;;;;;;;;;;;;;;21.38;29.59;95725.63;10473451;28;1872;-55
2022/02/19 16:38:44;;;;;;;;;;;;;;;21.40;29.58;95731.41;10480638;28;1797;-54
2022/02/19 16:43:45;;;;;;;;;;;;;;;21.36;29.44;95733.03;10478191;28;1906;-54
2022/02/19 16:48:46;;;;;;;;;;;;;;;21.36;29.72;95735.66;10478485;28;2078;-53
2022/02/19 16:53:47;;;;;;;;;;;;;;;21.34;29.57;95745.72;10484399;28;1764;-56
2022/02/19 16:58:47;;;;;;;;;;;;;;;21.34;29.68;95748.34;10476827;28;2185;-56
2022/02/19 17:03:51;;;;;;;;;;;;;;;21.32;29.63;95740.72;10478589;28;1906;-54
2022/02/19 17:08:52;;;;;;;;;;;;;;;21.33;29.56;95741.50;10472630;28;1855;-54
2022/02/19 17:13:53;;;;;;;;;;;;;;;21.33;29.65;95744.16;10482269;28;1780;-55
2022/02/19 17:18:53;;;;;;;;;;;;;;;21.30;29.62;95734.16;10475927;28;1811;-54
2022/02/19 17:23:53;;;;;;;;;;;;;;;21.26;29.63;95726.00;10482000;28;1974;-56
2022/02/19 17:28:54;;;;;;;;;;;;;;;21.32;29.80;95734.66;10470592;28;1750;-56
2022/02/19 17:33:55;;;;;;;;;;;;;;;21.25;29.78;95718.38;10476883;28;1799;-54
2022/02/19 17:38:56;;;;;;;;;;;;;;;21.25;29.84;95734.97;10473252;28;1857;-55
2022/02/19 17:43:56;;;;;;;;;;;;;;;21.25;29.63;95734.19;10474547;28;1982;-55
2022/02/19 17:48:56;;;;;;;;;;;;;;;21.24;29.58;95732.63;10468737;28;1801;-55
2022/02/19 17:53:56;;;;;;;;;;;;;;;21.23;29.56;95729.19;10475651;28;2202;-55
2022/02/19 17:58:57;;;;;;;;;;;;;;;21.20;29.80;95737.69;10468665;28;2161;-56
2022/02/19 18:03:57;;;;;;;;;;;;;;;21.23;29.75;95747.66;10473201;28;1977;-54
2022/02/19 18:08:59;;;;;;;;;;;;;;;21.21;29.27;95748.97;10470926;28;1797;-55
2022/02/19 18:13:59;;;;;;;;;;;;;;;21.19;29.48;95754.53;10476618;28;1859;-54
2022/02/19 18:18:59;;;;;;;;;;;;;;;21.22;29.65;95775.09;10471041;28;1765;-52
2022/02/19 18:24:07;;;;;;;;;;;;;;;21.19;29.38;95769.56;10478256;28;1906;-53
2022/02/19 18:29:08;;;;;;;;;;;;;;;21.23;29.28;95757.41;10472172;28;1840;-55
2022/02/19 18:34:09;;;;;;;;;;;;;;;21.21;29.37;95764.81;10477767;28;1835;-53
2022/02/19 18:39:09;;;;;;;;;;;;;;;21.18;29.16;95770.63;10476051;28;1805;-54
2022/02/19 18:44:09;;;;;;;;;;;;;;;21.16;29.29;95762.22;10471580;28;1977;-55
2022/02/19 18:49:10;;;;;;;;;;;;;;;21.15;29.28;95756.16;10471470;28;1912;-55
2022/02/19 18:54:10;;;;;;;;;;;;;;;21.12;28.99;95748.03;10472583;28;1800;-54
2022/02/19 18:59:11;;;;;;;;;;;;;;;21.12;29.26;95740.91;10467603;28;1951;-55
2022/02/19 19:04:13;;;;;;;;;;;;;;;21.14;29.31;95759.06;10472176;28;1918;-54
2022/02/19 19:09:15;;;;;;;;;;;;;;;21.13;28.68;95760.91;10470414;28;1774;-54
2022/02/19 19:14:15;;;;;;;;;;;;;;;21.05;28.50;95749.13;10471050;28;1447;-55
2022/02/19 19:19:15;;;;;;;;;;;;;;;21.10;28.50;95742.25;10478159;28;1598;-53
2022/02/19 19:24:16;;;;;;;;;;;;;;;21.10;28.57;95745.69;10472635;28;1906;-56
2022/02/19 19:29:16;;;;;;;;;;;;;;;21.10;29.09;95756.22;10474421;28;1980;-55
2022/02/19 19:34:16;;;;;;;;;;;;;;;21.09;28.46;95752.00;10477463;28;1532;-55
2022/02/19 19:39:17;;;;;;;;;;;;;;;21.06;28.62;95740.16;10472578;28;1474;-56
2022/02/19 19:44:17;;;;;;;;;;;;;;;21.17;28.23;95738.22;10478957;28;1918;-59
2022/02/19 19:49:18;;;;;;;;;;;;;;;21.19;28.55;95738.72;10472224;28;1516;-53
2022/02/19 19:54:18;;;;;;;;;;;;;;;21.27;28.71;95747.91;10476745;28;1676;-58
2022/02/19 19:59:19;;;;;;;;;;;;;;;21.26;28.33;95744.47;10477611;28;1414;-60
2022/02/19 20:04:19;;;;;;;;;;;;;;;21.35;28.18;95739.38;10482338;28;1914;-54
2022/02/19 20:09:21;;;;;;;;;;;;;;;21.29;27.29;95746.53;10481373;28;1533;-56
2022/02/19 20:14:21;;;;;;;;;;;;;;;21.27;27.32;95738.13;10487202;28;1465;-55
2022/02/19 20:19:22;;;;;;;;;;;;;;;21.37;28.30;95740.66;10477682;28;1374;-54
2022/02/19 20:24:22;;;;;;;;;;;;;;;21.45;28.70;95742.69;10483670;28;1921;-52
2022/02/19 20:29:22;;;;;;;;;;;;;;;21.51;28.84;95741.59;10477322;28;1472;-50
2022/02/19 20:34:23;;;;;;;;;;;;;;;21.57;29.12;95737.84;10483841;28;1497;-52
2022/02/19 20:39:23;;;;;;;;;;;;;;;21.61;27.72;95723.03;10481332;28;1458;-56
2022/02/19 20:44:24;;;;;;;;;;;;;;;21.58;28.42;95730.69;10478371;28;1910;-55
2022/02/19 20:49:24;;;;;;;;;;;;;;;21.61;28.59;95732.78;10479484;28;1469;-53
2022/02/19 20:54:24;;;;;;;;;;;;;;;21.61;28.85;95748.59;10479009;28;1596;-56
2022/02/19 20:59:27;;;;;;;;;;;;;;;21.64;28.57;95738.28;10474239;28;1588;-54
2022/02/19 21:04:28;;;;;;;;;;;;;;;21.68;28.57;95735.84;10476095;28;1987;-54
2022/02/19 21:09:29;;;;;;;;;;;;;;;21.70;28.41;95731.13;10473861;28;1840;-53
2022/02/19 21:14:29;;;;;;;;;;;;;;;21.69;28.59;95734.81;10481138;28;1498;-53
2022/02/19 21:19:30;;;;;;;;;;;;;;;21.70;28.59;95725.84;10473119;28;1470;-57
2022/02/19 21:24:31;;;;;;;;;;;;;;;21.70;28.60;95731.13;10481363;28;1918;-56
2022/02/19 21:29:32;;;;;;;;;;;;;;;21.73;28.46;95720.78;10476713;28;1457;-55
2022/02/19 21:34:33;;;;;;;;;;;;;;;21.73;28.38;95715.50;10471692;28;1474;-57
2022/02/19 21:39:33;;;;;;;;;;;;;;;21.74;28.60;95719.69;10477328;28;1490;-56
2022/02/19 21:44:33;;;;;;;;;;;;;;;21.76;28.53;95730.00;10481850;28;1922;-56
2022/02/19 21:49:34;;;;;;;;;;;;;;;21.76;28.37;95725.47;10475023;28;1466;-54
2022/02/19 21:54:34;;;;;;;;;;;;;;;21.76;28.14;95714.16;10482059;28;1481;-54
2022/02/19 21:59:35;;;;;;;;;;;;;;;21.76;28.22;95711.53;10471547;28;1478;-56
2022/02/19 22:04:36;;;;;;;;;;;;;;;21.76;27.83;95708.88;10475170;28;1995;-57
2022/02/19 22:09:36;;;;;;;;;;;;;;;21.77;27.54;95711.22;10474663;28;1506;-55
2022/02/19 22:14:36;;;;;;;;;;;;;;;21.78;28.00;95704.09;10478427;28;1576;-56
2022/02/19 22:19:37;;;;;;;;;;;;;;;21.78;27.73;95701.47;10474263;28;1414;-56
2022/02/19 22:24:37;;;;;;;;;;;;;;;21.78;27.63;95690.91;10478058;28;1910;-55
2022/02/19 22:29:37;;;;;;;;;;;;;;;21.78;28.10;95690.91;10471936;28;1534;-54
2022/02/19 22:34:38;;;;;;;;;;;;;;;21.78;27.80;95690.91;10477841;28;1469;-56
2022/02/19 22:39:38;;;;;;;;;;;;;;;21.79;27.53;95681.91;10475505;28;1442;-55
2022/02/19 22:44:38;;;;;;;;;;;;;;;21.78;27.59;95669.81;10475133;28;2007;-55
2022/02/19 22:49:39;;;;;;;;;;;;;;;21.97;28.28;95669.88;10471384;28;2200;-55
2022/02/19 22:54:39;;;;;;;;;;;;;;;21.95;28.50;95664.09;10475134;28;1841;-54
2022/02/19 22:59:40;;;;;;;;;;;;;;;21.96;28.59;95663.78;10476717;28;1900;-55
2022/02/19 23:09:59;;;;;;;;;;;;;;;21.93;28.94;95653.03;10473232;28;1789;-55
2022/02/19 23:14:59;;;;;;;;;;;;;;;21.93;28.68;95651.16;10478229;28;1883;-55
2022/02/19 23:19:59;;;;;;;;;;;;;;;21.88;28.71;95645.97;10467815;28;1821;-56
2022/02/19 23:25:02;;;;;;;;;;;;;;;21.85;28.64;95641.22;10474157;28;1906;-55
2022/02/19 23:30:06;;;;;;;;;;;;;;;21.82;28.43;95647.09;10473865;28;1844;-54
2022/02/19 23:35:06;;;;;;;;;;;;;;;21.77;28.25;95626.81;10482216;28;1862;-54
2022/02/19 23:40:07;;;;;;;;;;;;;;;21.74;28.47;95622.06;10480343;28;1850;-54
2022/02/19 23:45:07;;;;;;;;;;;;;;;21.76;28.46;95608.63;10484085;28;1934;-54
2022/02/19 23:50:08;;;;;;;;;;;;;;;21.74;28.23;95616.03;10479027;28;1777;-52
2022/02/19 23:55:08;;;;;;;;;;;;;;;21.69;28.07;95608.19;10478768;28;1810;-55
